sensor_id;sensor_type;location;lat;lon;timestamp;P1;durP1;ratioP1;P2;durP2;ratioP2
3563;SDS011;1796;52.388;13.096;2022-09-09T00:01:37;10.83;;;8.20;;
3563;SDS011;1796;52.388;13.096;2022-09-09T00:04:16;11.30;;;7.90;;
3563;SDS011;1796;52.388;13.096;2022-09-09T00:06:55;9.07;;;8.17;;
3563;SDS011;1796;52.388;13.096;2022-09-09T00:09:29;10.13;;;7.53;;
3563;SDS011;1796;52.388;13.096;2022-09-09T00:12:04;10.83;;;8.07;;
3563;SDS011;1796;52.388;13.096;2022-09-09T00:14:39;10.97;;;8.70;;
3563;SDS011;1796;52.388;13.096;2022-09-09T00:17:12;10.17;;;8.77;;
3563;SDS011;1796;52.388;13.096;2022-09-09T00:19:52;11.97;;;8.73;;
3563;SDS011;1796;52.388;13.096;2022-09-09T00:22:27;15.67;;;9.63;;
3563;SDS011;1796;52.388;13.096;2022-09-09T00:25:00;15.60;;;9.20;;
3563;SDS011;1796;52.388;13.096;2022-09-09T00:27:37;12.60;;;9.40;;
3563;SDS011;1796;52.388;13.096;2022-09-09T00:30:13;11.83;;;9.00;;
3563;SDS011;1796;52.388;13.096;2022-09-09T00:32:44;9.63;;;8.40;;
3563;SDS011;1796;52.388;13.096;2022-09-09T00:35:14;11.40;;;9.00;;
3563;SDS011;1796;52.388;13.096;2022-09-09T00:37:44;11.10;;;8.80;;
3563;SDS011;1796;52.388;13.096;2022-09-09T00:40:19;16.27;;;9.30;;
3563;SDS011;1796;52.388;13.096;2022-09-09T00:42:52;13.73;;;9.80;;
3563;SDS011;1796;52.388;13.096;2022-09-09T00:45:39;11.13;;;7.93;;
3563;SDS011;1796;52.388;13.096;2022-09-09T00:48:30;12.40;;;9.00;;
3563;SDS011;1796;52.388;13.096;2022-09-09T00:51:05;13.93;;;8.10;;
3563;SDS011;1796;52.388;13.096;2022-09-09T00:53:51;10.80;;;8.20;;
3563;SDS011;1796;52.388;13.096;2022-09-09T00:56:30;12.97;;;8.20;;
3563;SDS011;1796;52.388;13.096;2022-09-09T00:59:08;8.70;;;7.43;;
3563;SDS011;1796;52.388;13.096;2022-09-09T01:01:48;11.20;;;8.63;;
3563;SDS011;1796;52.388;13.096;2022-09-09T01:04:16;10.93;;;9.10;;
3563;SDS011;1796;52.388;13.096;2022-09-09T01:06:55;15.30;;;9.60;;
3563;SDS011;1796;52.388;13.096;2022-09-09T01:09:30;16.60;;;9.00;;
3563;SDS011;1796;52.388;13.096;2022-09-09T01:12:09;17.97;;;10.00;;
3563;SDS011;1796;52.388;13.096;2022-09-09T01:14:41;14.30;;;9.40;;
3563;SDS011;1796;52.388;13.096;2022-09-09T01:17:13;17.73;;;10.43;;
3563;SDS011;1796;52.388;13.096;2022-09-09T01:19:49;15.23;;;10.40;;
3563;SDS011;1796;52.388;13.096;2022-09-09T01:22:29;12.60;;;9.60;;
3563;SDS011;1796;52.388;13.096;2022-09-09T01:27:50;10.73;;;8.67;;
3563;SDS011;1796;52.388;13.096;2022-09-09T01:30:18;15.40;;;9.80;;
3563;SDS011;1796;52.388;13.096;2022-09-09T01:32:48;10.57;;;8.57;;
3563;SDS011;1796;52.388;13.096;2022-09-09T01:35:19;13.13;;;9.10;;
3563;SDS011;1796;52.388;13.096;2022-09-09T01:37:54;11.73;;;8.83;;
3563;SDS011;1796;52.388;13.096;2022-09-09T01:40:21;12.00;;;8.63;;
3563;SDS011;1796;52.388;13.096;2022-09-09T01:42:49;16.30;;;8.73;;
3563;SDS011;1796;52.388;13.096;2022-09-09T01:45:16;12.77;;;9.27;;
3563;SDS011;1796;52.388;13.096;2022-09-09T01:47:43;12.17;;;9.03;;
3563;SDS011;1796;52.388;13.096;2022-09-09T01:50:12;13.53;;;8.80;;
3563;SDS011;1796;52.388;13.096;2022-09-09T01:52:42;9.70;;;8.60;;
3563;SDS011;1796;52.388;13.096;2022-09-09T01:55:10;11.23;;;8.33;;
3563;SDS011;1796;52.388;13.096;2022-09-09T01:57:39;13.27;;;8.50;;
3563;SDS011;1796;52.388;13.096;2022-09-09T02:00:14;11.70;;;8.87;;
3563;SDS011;1796;52.388;13.096;2022-09-09T02:02:43;11.30;;;8.00;;
3563;SDS011;1796;52.388;13.096;2022-09-09T02:05:18;11.63;;;9.13;;
3563;SDS011;1796;52.388;13.096;2022-09-09T02:07:55;12.03;;;8.70;;
3563;SDS011;1796;52.388;13.096;2022-09-09T02:10:31;28.10;;;9.60;;
3563;SDS011;1796;52.388;13.096;2022-09-09T02:13:02;12.17;;;8.93;;
3563;SDS011;1796;52.388;13.096;2022-09-09T02:15:35;13.53;;;9.00;;
3563;SDS011;1796;52.388;13.096;2022-09-09T02:18:08;10.63;;;7.90;;
3563;SDS011;1796;52.388;13.096;2022-09-09T02:20:38;10.30;;;8.50;;
3563;SDS011;1796;52.388;13.096;2022-09-09T02:23:06;15.33;;;9.90;;
3563;SDS011;1796;52.388;13.096;2022-09-09T02:25:35;15.93;;;8.80;;
3563;SDS011;1796;52.388;13.096;2022-09-09T02:28:03;12.43;;;8.50;;
3563;SDS011;1796;52.388;13.096;2022-09-09T02:30:36;11.90;;;9.23;;
3563;SDS011;1796;52.388;13.096;2022-09-09T02:33:04;16.10;;;9.43;;
3563;SDS011;1796;52.388;13.096;2022-09-09T02:35:35;11.40;;;8.77;;
3563;SDS011;1796;52.388;13.096;2022-09-09T02:38:04;16.43;;;8.63;;
3563;SDS011;1796;52.388;13.096;2022-09-09T02:40:34;20.63;;;9.30;;
3563;SDS011;1796;52.388;13.096;2022-09-09T02:43:04;16.10;;;9.53;;
3563;SDS011;1796;52.388;13.096;2022-09-09T02:45:32;12.93;;;8.40;;
3563;SDS011;1796;52.388;13.096;2022-09-09T02:48:11;15.00;;;8.70;;
3563;SDS011;1796;52.388;13.096;2022-09-09T02:50:46;13.43;;;9.13;;
3563;SDS011;1796;52.388;13.096;2022-09-09T02:53:22;12.70;;;9.20;;
3563;SDS011;1796;52.388;13.096;2022-09-09T02:55:54;16.80;;;9.37;;
3563;SDS011;1796;52.388;13.096;2022-09-09T02:58:24;10.57;;;8.43;;
3563;SDS011;1796;52.388;13.096;2022-09-09T03:00:53;11.10;;;8.20;;
3563;SDS011;1796;52.388;13.096;2022-09-09T03:03:22;20.50;;;8.07;;
3563;SDS011;1796;52.388;13.096;2022-09-09T03:05:49;11.63;;;8.77;;
3563;SDS011;1796;52.388;13.096;2022-09-09T03:08:16;12.80;;;9.20;;
3563;SDS011;1796;52.388;13.096;2022-09-09T03:10:43;12.93;;;8.40;;
3563;SDS011;1796;52.388;13.096;2022-09-09T03:13:10;18.50;;;9.37;;
3563;SDS011;1796;52.388;13.096;2022-09-09T03:15:40;11.00;;;9.20;;
3563;SDS011;1796;52.388;13.096;2022-09-09T03:18:08;14.10;;;9.63;;
3563;SDS011;1796;52.388;13.096;2022-09-09T03:20:35;20.63;;;8.70;;
3563;SDS011;1796;52.388;13.096;2022-09-09T03:23:02;15.73;;;8.80;;
3563;SDS011;1796;52.388;13.096;2022-09-09T03:25:29;16.13;;;9.33;;
3563;SDS011;1796;52.388;13.096;2022-09-09T03:27:57;16.60;;;8.37;;
3563;SDS011;1796;52.388;13.096;2022-09-09T03:30:24;15.73;;;9.10;;
3563;SDS011;1796;52.388;13.096;2022-09-09T03:32:55;19.23;;;8.47;;
3563;SDS011;1796;52.388;13.096;2022-09-09T03:35:23;17.50;;;9.20;;
3563;SDS011;1796;52.388;13.096;2022-09-09T03:37:50;12.10;;;9.27;;
3563;SDS011;1796;52.388;13.096;2022-09-09T03:40:17;13.40;;;9.10;;
3563;SDS011;1796;52.388;13.096;2022-09-09T03:42:44;14.17;;;8.10;;
3563;SDS011;1796;52.388;13.096;2022-09-09T03:45:11;13.80;;;8.47;;
3563;SDS011;1796;52.388;13.096;2022-09-09T03:47:38;12.47;;;7.97;;
3563;SDS011;1796;52.388;13.096;2022-09-09T03:50:05;10.70;;;8.00;;
3563;SDS011;1796;52.388;13.096;2022-09-09T03:52:36;13.10;;;8.03;;
3563;SDS011;1796;52.388;13.096;2022-09-09T03:55:04;16.50;;;8.97;;
3563;SDS011;1796;52.388;13.096;2022-09-09T03:57:32;9.80;;;7.97;;
3563;SDS011;1796;52.388;13.096;2022-09-09T04:00:01;10.23;;;7.80;;
3563;SDS011;1796;52.388;13.096;2022-09-09T04:02:29;11.73;;;8.30;;
3563;SDS011;1796;52.388;13.096;2022-09-09T04:04:56;13.10;;;7.30;;
3563;SDS011;1796;52.388;13.096;2022-09-09T04:07:23;14.20;;;9.33;;
3563;SDS011;1796;52.388;13.096;2022-09-09T04:09:51;9.27;;;7.57;;
3563;SDS011;1796;52.388;13.096;2022-09-09T04:12:19;20.97;;;7.93;;
3563;SDS011;1796;52.388;13.096;2022-09-09T04:14:47;10.07;;;7.77;;
3563;SDS011;1796;52.388;13.096;2022-09-09T04:17:14;12.10;;;7.97;;
3563;SDS011;1796;52.388;13.096;2022-09-09T04:19:41;9.20;;;8.10;;
3563;SDS011;1796;52.388;13.096;2022-09-09T04:22:08;10.30;;;8.00;;
3563;SDS011;1796;52.388;13.096;2022-09-09T04:24:35;14.63;;;8.70;;
3563;SDS011;1796;52.388;13.096;2022-09-09T04:27:03;13.57;;;7.27;;
3563;SDS011;1796;52.388;13.096;2022-09-09T04:29:30;11.10;;;8.47;;
3563;SDS011;1796;52.388;13.096;2022-09-09T04:31:58;10.80;;;8.17;;
3563;SDS011;1796;52.388;13.096;2022-09-09T04:34:25;17.40;;;7.73;;
3563;SDS011;1796;52.388;13.096;2022-09-09T04:36:52;15.30;;;8.27;;
3563;SDS011;1796;52.388;13.096;2022-09-09T04:39:18;12.23;;;7.37;;
3563;SDS011;1796;52.388;13.096;2022-09-09T04:41:45;10.57;;;8.30;;
3563;SDS011;1796;52.388;13.096;2022-09-09T04:44:14;9.00;;;7.07;;
3563;SDS011;1796;52.388;13.096;2022-09-09T04:46:41;18.90;;;8.10;;
3563;SDS011;1796;52.388;13.096;2022-09-09T04:49:08;10.87;;;7.80;;
3563;SDS011;1796;52.388;13.096;2022-09-09T04:51:35;18.67;;;10.30;;
3563;SDS011;1796;52.388;13.096;2022-09-09T04:54:02;16.93;;;11.30;;
3563;SDS011;1796;52.388;13.096;2022-09-09T04:56:30;24.77;;;12.50;;
3563;SDS011;1796;52.388;13.096;2022-09-09T04:58:57;18.30;;;11.77;;
3563;SDS011;1796;52.388;13.096;2022-09-09T05:01:25;20.93;;;12.30;;
3563;SDS011;1796;52.388;13.096;2022-09-09T05:03:53;17.87;;;11.57;;
3563;SDS011;1796;52.388;13.096;2022-09-09T05:06:20;18.07;;;11.70;;
3563;SDS011;1796;52.388;13.096;2022-09-09T05:08:48;18.50;;;10.93;;
3563;SDS011;1796;52.388;13.096;2022-09-09T05:11:16;15.03;;;9.50;;
3563;SDS011;1796;52.388;13.096;2022-09-09T05:13:43;10.30;;;9.07;;
3563;SDS011;1796;52.388;13.096;2022-09-09T05:16:11;15.97;;;8.00;;
3563;SDS011;1796;52.388;13.096;2022-09-09T05:18:39;9.30;;;7.60;;
3563;SDS011;1796;52.388;13.096;2022-09-09T05:21:07;8.03;;;6.80;;
3563;SDS011;1796;52.388;13.096;2022-09-09T05:23:35;6.97;;;6.33;;
3563;SDS011;1796;52.388;13.096;2022-09-09T05:26:03;7.80;;;6.20;;
3563;SDS011;1796;52.388;13.096;2022-09-09T05:28:30;9.53;;;5.67;;
3563;SDS011;1796;52.388;13.096;2022-09-09T05:31:00;5.87;;;5.40;;
3563;SDS011;1796;52.388;13.096;2022-09-09T05:33:29;5.90;;;5.20;;
3563;SDS011;1796;52.388;13.096;2022-09-09T05:36:00;9.47;;;5.07;;
3563;SDS011;1796;52.388;13.096;2022-09-09T05:38:29;4.90;;;4.30;;
3563;SDS011;1796;52.388;13.096;2022-09-09T05:40:57;4.03;;;3.83;;
3563;SDS011;1796;52.388;13.096;2022-09-09T05:43:25;4.70;;;4.40;;
3563;SDS011;1796;52.388;13.096;2022-09-09T05:45:59;4.87;;;4.40;;
3563;SDS011;1796;52.388;13.096;2022-09-09T05:48:28;8.07;;;4.00;;
3563;SDS011;1796;52.388;13.096;2022-09-09T05:50:56;10.13;;;4.60;;
3563;SDS011;1796;52.388;13.096;2022-09-09T05:53:24;5.47;;;4.23;;
3563;SDS011;1796;52.388;13.096;2022-09-09T05:55:57;5.37;;;4.87;;
3563;SDS011;1796;52.388;13.096;2022-09-09T05:58:25;13.73;;;3.77;;
3563;SDS011;1796;52.388;13.096;2022-09-09T06:00:52;6.40;;;4.00;;
3563;SDS011;1796;52.388;13.096;2022-09-09T06:03:25;7.50;;;3.30;;
3563;SDS011;1796;52.388;13.096;2022-09-09T06:05:56;4.60;;;3.53;;
3563;SDS011;1796;52.388;13.096;2022-09-09T06:08:26;3.60;;;3.20;;
3563;SDS011;1796;52.388;13.096;2022-09-09T06:10:53;7.03;;;3.40;;
3563;SDS011;1796;52.388;13.096;2022-09-09T06:13:27;7.23;;;3.00;;
3563;SDS011;1796;52.388;13.096;2022-09-09T06:15:54;3.00;;;2.77;;
3563;SDS011;1796;52.388;13.096;2022-09-09T06:18:21;3.43;;;2.70;;
3563;SDS011;1796;52.388;13.096;2022-09-09T06:20:54;5.43;;;3.50;;
3563;SDS011;1796;52.388;13.096;2022-09-09T06:23:27;3.33;;;2.83;;
3563;SDS011;1796;52.388;13.096;2022-09-09T06:26:00;4.30;;;3.00;;
3563;SDS011;1796;52.388;13.096;2022-09-09T06:28:30;14.87;;;3.80;;
3563;SDS011;1796;52.388;13.096;2022-09-09T06:30:58;6.13;;;2.90;;
3563;SDS011;1796;52.388;13.096;2022-09-09T06:33:25;4.40;;;2.97;;
3563;SDS011;1796;52.388;13.096;2022-09-09T06:35:52;9.50;;;2.70;;
3563;SDS011;1796;52.388;13.096;2022-09-09T06:38:19;3.00;;;2.70;;
3563;SDS011;1796;52.388;13.096;2022-09-09T06:40:51;2.50;;;2.40;;
3563;SDS011;1796;52.388;13.096;2022-09-09T06:43:20;4.77;;;3.10;;
3563;SDS011;1796;52.388;13.096;2022-09-09T06:45:52;4.20;;;2.33;;
3563;SDS011;1796;52.388;13.096;2022-09-09T06:48:22;5.37;;;2.40;;
3563;SDS011;1796;52.388;13.096;2022-09-09T06:50:51;6.13;;;2.43;;
3563;SDS011;1796;52.388;13.096;2022-09-09T06:53:19;8.93;;;2.87;;
3563;SDS011;1796;52.388;13.096;2022-09-09T06:55:46;3.40;;;2.10;;
3563;SDS011;1796;52.388;13.096;2022-09-09T06:58:14;4.37;;;2.33;;
3563;SDS011;1796;52.388;13.096;2022-09-09T07:00:41;4.37;;;1.93;;
3563;SDS011;1796;52.388;13.096;2022-09-09T07:03:09;8.83;;;2.43;;
3563;SDS011;1796;52.388;13.096;2022-09-09T07:05:36;3.07;;;2.00;;
3563;SDS011;1796;52.388;13.096;2022-09-09T07:08:03;1.90;;;1.70;;
3563;SDS011;1796;52.388;13.096;2022-09-09T07:10:30;4.37;;;1.80;;
3563;SDS011;1796;52.388;13.096;2022-09-09T07:12:59;2.30;;;1.93;;
3563;SDS011;1796;52.388;13.096;2022-09-09T07:15:28;1.93;;;1.83;;
3563;SDS011;1796;52.388;13.096;2022-09-09T07:18:00;4.10;;;1.90;;
3563;SDS011;1796;52.388;13.096;2022-09-09T07:20:27;3.13;;;1.83;;
3563;SDS011;1796;52.388;13.096;2022-09-09T07:22:54;8.93;;;2.10;;
3563;SDS011;1796;52.388;13.096;2022-09-09T07:25:23;3.30;;;1.80;;
3563;SDS011;1796;52.388;13.096;2022-09-09T07:27:51;6.73;;;2.63;;
3563;SDS011;1796;52.388;13.096;2022-09-09T07:30:18;3.37;;;1.77;;
3563;SDS011;1796;52.388;13.096;2022-09-09T07:32:46;3.07;;;2.20;;
3563;SDS011;1796;52.388;13.096;2022-09-09T07:35:13;4.57;;;3.23;;
3563;SDS011;1796;52.388;13.096;2022-09-09T07:37:40;2.80;;;2.37;;
3563;SDS011;1796;52.388;13.096;2022-09-09T07:40:07;4.83;;;1.90;;
3563;SDS011;1796;52.388;13.096;2022-09-09T07:42:35;4.27;;;2.33;;
3563;SDS011;1796;52.388;13.096;2022-09-09T07:45:02;4.10;;;2.03;;
3563;SDS011;1796;52.388;13.096;2022-09-09T07:47:30;2.40;;;2.00;;
3563;SDS011;1796;52.388;13.096;2022-09-09T07:49:59;3.87;;;2.23;;
3563;SDS011;1796;52.388;13.096;2022-09-09T07:52:26;39.00;;;16.50;;
3563;SDS011;1796;52.388;13.096;2022-09-09T07:54:53;4.87;;;3.47;;
3563;SDS011;1796;52.388;13.096;2022-09-09T07:57:21;3.33;;;1.67;;
3563;SDS011;1796;52.388;13.096;2022-09-09T07:59:48;6.73;;;2.10;;
3563;SDS011;1796;52.388;13.096;2022-09-09T08:02:15;3.00;;;1.87;;
3563;SDS011;1796;52.388;13.096;2022-09-09T08:04:42;3.30;;;2.07;;
3563;SDS011;1796;52.388;13.096;2022-09-09T08:07:10;12.50;;;1.70;;
3563;SDS011;1796;52.388;13.096;2022-09-09T08:09:38;3.43;;;2.00;;
3563;SDS011;1796;52.388;13.096;2022-09-09T08:12:05;3.50;;;1.70;;
3563;SDS011;1796;52.388;13.096;2022-09-09T08:14:33;3.43;;;1.90;;
3563;SDS011;1796;52.388;13.096;2022-09-09T08:17:00;3.33;;;1.60;;
3563;SDS011;1796;52.388;13.096;2022-09-09T08:19:27;10.37;;;2.17;;
3563;SDS011;1796;52.388;13.096;2022-09-09T08:21:55;12.10;;;1.70;;
3563;SDS011;1796;52.388;13.096;2022-09-09T08:24:23;3.57;;;1.50;;
3563;SDS011;1796;52.388;13.096;2022-09-09T08:26:51;4.40;;;1.57;;
3563;SDS011;1796;52.388;13.096;2022-09-09T08:29:18;2.50;;;1.40;;
3563;SDS011;1796;52.388;13.096;2022-09-09T08:31:46;3.80;;;1.73;;
3563;SDS011;1796;52.388;13.096;2022-09-09T08:34:14;6.70;;;2.30;;
3563;SDS011;1796;52.388;13.096;2022-09-09T08:36:42;5.60;;;1.90;;
3563;SDS011;1796;52.388;13.096;2022-09-09T08:39:10;3.70;;;1.67;;
3563;SDS011;1796;52.388;13.096;2022-09-09T08:41:56;3.67;;;1.97;;
3563;SDS011;1796;52.388;13.096;2022-09-09T08:44:34;3.30;;;2.20;;
3563;SDS011;1796;52.388;13.096;2022-09-09T08:47:13;4.23;;;1.80;;
3563;SDS011;1796;52.388;13.096;2022-09-09T08:49:52;5.77;;;1.77;;
3563;SDS011;1796;52.388;13.096;2022-09-09T08:52:29;4.40;;;1.70;;
3563;SDS011;1796;52.388;13.096;2022-09-09T08:54:59;5.83;;;2.30;;
3563;SDS011;1796;52.388;13.096;2022-09-09T08:57:49;5.40;;;1.70;;
3563;SDS011;1796;52.388;13.096;2022-09-09T09:00:19;6.60;;;2.00;;
3563;SDS011;1796;52.388;13.096;2022-09-09T09:02:48;2.17;;;1.93;;
3563;SDS011;1796;52.388;13.096;2022-09-09T09:05:28;2.87;;;1.90;;
3563;SDS011;1796;52.388;13.096;2022-09-09T09:08:03;4.80;;;2.10;;
3563;SDS011;1796;52.388;13.096;2022-09-09T09:10:42;3.60;;;1.80;;
3563;SDS011;1796;52.388;13.096;2022-09-09T09:13:18;3.80;;;2.07;;
3563;SDS011;1796;52.388;13.096;2022-09-09T09:15:48;3.20;;;1.77;;
3563;SDS011;1796;52.388;13.096;2022-09-09T09:18:19;5.07;;;2.27;;
3563;SDS011;1796;52.388;13.096;2022-09-09T09:20:57;2.70;;;1.63;;
3563;SDS011;1796;52.388;13.096;2022-09-09T09:23:29;3.87;;;2.13;;
3563;SDS011;1796;52.388;13.096;2022-09-09T09:26:05;10.20;;;2.30;;
3563;SDS011;1796;52.388;13.096;2022-09-09T09:28:37;3.40;;;1.80;;
3563;SDS011;1796;52.388;13.096;2022-09-09T09:31:06;2.10;;;1.57;;
3563;SDS011;1796;52.388;13.096;2022-09-09T09:33:36;3.07;;;1.37;;
3563;SDS011;1796;52.388;13.096;2022-09-09T09:36:13;14.33;;;2.13;;
3563;SDS011;1796;52.388;13.096;2022-09-09T09:38:51;6.07;;;1.90;;
3563;SDS011;1796;52.388;13.096;2022-09-09T09:41:28;4.53;;;1.70;;
3563;SDS011;1796;52.388;13.096;2022-09-09T09:43:58;6.60;;;1.60;;
3563;SDS011;1796;52.388;13.096;2022-09-09T09:46:26;4.20;;;1.97;;
3563;SDS011;1796;52.388;13.096;2022-09-09T09:48:57;3.80;;;1.60;;
3563;SDS011;1796;52.388;13.096;2022-09-09T09:51:25;2.30;;;1.63;;
3563;SDS011;1796;52.388;13.096;2022-09-09T09:53:53;6.83;;;1.27;;
3563;SDS011;1796;52.388;13.096;2022-09-09T09:56:26;4.30;;;1.70;;
3563;SDS011;1796;52.388;13.096;2022-09-09T09:58:55;3.60;;;1.80;;
3563;SDS011;1796;52.388;13.096;2022-09-09T10:01:24;1.73;;;1.60;;
3563;SDS011;1796;52.388;13.096;2022-09-09T10:03:53;7.60;;;1.77;;
3563;SDS011;1796;52.388;13.096;2022-09-09T10:06:29;3.33;;;1.60;;
3563;SDS011;1796;52.388;13.096;2022-09-09T10:08:58;7.70;;;1.77;;
3563;SDS011;1796;52.388;13.096;2022-09-09T10:11:30;5.33;;;2.00;;
3563;SDS011;1796;52.388;13.096;2022-09-09T10:14:11;2.63;;;1.80;;
3563;SDS011;1796;52.388;13.096;2022-09-09T10:16:50;2.27;;;1.37;;
3563;SDS011;1796;52.388;13.096;2022-09-09T10:19:31;4.03;;;1.93;;
3563;SDS011;1796;52.388;13.096;2022-09-09T10:22:04;6.70;;;1.87;;
3563;SDS011;1796;52.388;13.096;2022-09-09T10:24:41;5.83;;;1.40;;
3563;SDS011;1796;52.388;13.096;2022-09-09T10:27:20;6.03;;;1.77;;
3563;SDS011;1796;52.388;13.096;2022-09-09T10:32:45;2.10;;;1.50;;
3563;SDS011;1796;52.388;13.096;2022-09-09T10:35:24;3.80;;;1.10;;
3563;SDS011;1796;52.388;13.096;2022-09-09T10:38:01;5.70;;;2.00;;
3563;SDS011;1796;52.388;13.096;2022-09-09T10:40:39;10.70;;;1.30;;
3563;SDS011;1796;52.388;13.096;2022-09-09T10:43:18;4.80;;;1.83;;
3563;SDS011;1796;52.388;13.096;2022-09-09T10:45:59;2.17;;;1.17;;
3563;SDS011;1796;52.388;13.096;2022-09-09T10:48:37;3.37;;;1.50;;
3563;SDS011;1796;52.388;13.096;2022-09-09T10:51:23;2.27;;;1.20;;
3563;SDS011;1796;52.388;13.096;2022-09-09T10:54:16;4.10;;;1.90;;
3563;SDS011;1796;52.388;13.096;2022-09-09T10:56:55;3.33;;;1.20;;
3563;SDS011;1796;52.388;13.096;2022-09-09T10:59:27;6.00;;;1.20;;
3563;SDS011;1796;52.388;13.096;2022-09-09T11:02:00;2.87;;;1.63;;
3563;SDS011;1796;52.388;13.096;2022-09-09T11:04:35;4.53;;;1.60;;
3563;SDS011;1796;52.388;13.096;2022-09-09T11:07:06;1.90;;;1.30;;
3563;SDS011;1796;52.388;13.096;2022-09-09T11:09:39;2.83;;;1.77;;
3563;SDS011;1796;52.388;13.096;2022-09-09T11:12:15;3.57;;;1.10;;
3563;SDS011;1796;52.388;13.096;2022-09-09T11:14:45;5.53;;;2.10;;
3563;SDS011;1796;52.388;13.096;2022-09-09T11:17:17;5.13;;;1.50;;
3563;SDS011;1796;52.388;13.096;2022-09-09T11:19:49;1.80;;;1.20;;
3563;SDS011;1796;52.388;13.096;2022-09-09T11:22:20;3.03;;;1.20;;
3563;SDS011;1796;52.388;13.096;2022-09-09T11:24:54;3.87;;;1.27;;
3563;SDS011;1796;52.388;13.096;2022-09-09T11:27:26;2.43;;;1.60;;
3563;SDS011;1796;52.388;13.096;2022-09-09T11:32:52;4.40;;;1.50;;
3563;SDS011;1796;52.388;13.096;2022-09-09T11:35:52;2.20;;;1.10;;
3563;SDS011;1796;52.388;13.096;2022-09-09T11:38:27;4.60;;;1.67;;
3563;SDS011;1796;52.388;13.096;2022-09-09T11:41:00;3.40;;;1.47;;
3563;SDS011;1796;52.388;13.096;2022-09-09T11:43:32;4.23;;;1.43;;
3563;SDS011;1796;52.388;13.096;2022-09-09T11:46:06;6.33;;;1.60;;
3563;SDS011;1796;52.388;13.096;2022-09-09T11:48:35;8.73;;;1.77;;
3563;SDS011;1796;52.388;13.096;2022-09-09T11:51:05;2.50;;;1.37;;
3563;SDS011;1796;52.388;13.096;2022-09-09T11:53:34;1.57;;;0.90;;
3563;SDS011;1796;52.388;13.096;2022-09-09T11:56:12;6.53;;;1.30;;
3563;SDS011;1796;52.388;13.096;2022-09-09T11:58:53;6.53;;;1.33;;
3563;SDS011;1796;52.388;13.096;2022-09-09T12:01:35;4.67;;;1.30;;
3563;SDS011;1796;52.388;13.096;2022-09-09T12:04:11;3.20;;;1.40;;
3563;SDS011;1796;52.388;13.096;2022-09-09T12:06:46;4.90;;;1.53;;
3563;SDS011;1796;52.388;13.096;2022-09-09T12:09:18;5.37;;;1.17;;
3563;SDS011;1796;52.388;13.096;2022-09-09T12:11:49;2.10;;;1.23;;
3563;SDS011;1796;52.388;13.096;2022-09-09T12:14:20;2.30;;;1.50;;
3563;SDS011;1796;52.388;13.096;2022-09-09T12:16:49;1.90;;;1.60;;
3563;SDS011;1796;52.388;13.096;2022-09-09T12:19:18;5.13;;;1.70;;
3563;SDS011;1796;52.388;13.096;2022-09-09T12:21:51;6.80;;;1.53;;
3563;SDS011;1796;52.388;13.096;2022-09-09T12:24:27;5.10;;;1.27;;
3563;SDS011;1796;52.388;13.096;2022-09-09T12:27:05;2.10;;;1.53;;
3563;SDS011;1796;52.388;13.096;2022-09-09T12:29:40;3.73;;;1.00;;
3563;SDS011;1796;52.388;13.096;2022-09-09T12:32:14;1.40;;;1.30;;
3563;SDS011;1796;52.388;13.096;2022-09-09T12:34:44;3.17;;;1.40;;
3563;SDS011;1796;52.388;13.096;2022-09-09T12:37:17;6.53;;;1.67;;
3563;SDS011;1796;52.388;13.096;2022-09-09T12:39:51;11.23;;;1.33;;
3563;SDS011;1796;52.388;13.096;2022-09-09T12:42:21;6.27;;;1.50;;
3563;SDS011;1796;52.388;13.096;2022-09-09T12:44:53;5.10;;;1.83;;
3563;SDS011;1796;52.388;13.096;2022-09-09T12:47:21;2.23;;;2.03;;
3563;SDS011;1796;52.388;13.096;2022-09-09T12:49:52;8.07;;;2.27;;
3563;SDS011;1796;52.388;13.096;2022-09-09T12:52:24;5.13;;;2.63;;
3563;SDS011;1796;52.388;13.096;2022-09-09T12:54:56;2.03;;;1.57;;
3563;SDS011;1796;52.388;13.096;2022-09-09T12:57:25;3.57;;;1.60;;
3563;SDS011;1796;52.388;13.096;2022-09-09T13:00:03;2.83;;;1.70;;
3563;SDS011;1796;52.388;13.096;2022-09-09T13:02:32;3.97;;;1.90;;
3563;SDS011;1796;52.388;13.096;2022-09-09T13:05:06;4.63;;;1.63;;
3563;SDS011;1796;52.388;13.096;2022-09-09T13:07:41;10.87;;;2.00;;
3563;SDS011;1796;52.388;13.096;2022-09-09T13:10:10;4.97;;;1.87;;
3563;SDS011;1796;52.388;13.096;2022-09-09T13:12:37;4.10;;;0.97;;
3563;SDS011;1796;52.388;13.096;2022-09-09T13:15:05;5.53;;;1.93;;
3563;SDS011;1796;52.388;13.096;2022-09-09T13:17:40;4.60;;;2.37;;
3563;SDS011;1796;52.388;13.096;2022-09-09T13:20:14;3.17;;;1.60;;
3563;SDS011;1796;52.388;13.096;2022-09-09T13:22:44;4.10;;;1.50;;
3563;SDS011;1796;52.388;13.096;2022-09-09T13:25:17;2.90;;;1.10;;
3563;SDS011;1796;52.388;13.096;2022-09-09T13:27:51;2.63;;;1.43;;
3563;SDS011;1796;52.388;13.096;2022-09-09T13:30:21;3.57;;;1.27;;
3563;SDS011;1796;52.388;13.096;2022-09-09T13:33:00;1.33;;;1.00;;
3563;SDS011;1796;52.388;13.096;2022-09-09T13:35:28;1.97;;;1.17;;
3563;SDS011;1796;52.388;13.096;2022-09-09T13:37:57;2.80;;;1.07;;
3563;SDS011;1796;52.388;13.096;2022-09-09T13:40:24;11.03;;;1.63;;
3563;SDS011;1796;52.388;13.096;2022-09-09T13:42:54;4.60;;;1.30;;
3563;SDS011;1796;52.388;13.096;2022-09-09T13:45:23;5.03;;;0.97;;
3563;SDS011;1796;52.388;13.096;2022-09-09T13:47:52;1.60;;;1.10;;
3563;SDS011;1796;52.388;13.096;2022-09-09T13:50:20;2.60;;;1.40;;
3563;SDS011;1796;52.388;13.096;2022-09-09T13:52:49;3.27;;;1.10;;
3563;SDS011;1796;52.388;13.096;2022-09-09T13:55:19;2.53;;;1.37;;
3563;SDS011;1796;52.388;13.096;2022-09-09T13:57:51;2.00;;;1.23;;
3563;SDS011;1796;52.388;13.096;2022-09-09T14:00:20;3.17;;;1.20;;
3563;SDS011;1796;52.388;13.096;2022-09-09T14:02:47;4.10;;;1.50;;
3563;SDS011;1796;52.388;13.096;2022-09-09T14:05:15;3.40;;;1.83;;
3563;SDS011;1796;52.388;13.096;2022-09-09T14:07:42;2.47;;;1.13;;
3563;SDS011;1796;52.388;13.096;2022-09-09T14:10:10;5.47;;;1.40;;
3563;SDS011;1796;52.388;13.096;2022-09-09T14:12:39;7.10;;;1.47;;
3563;SDS011;1796;52.388;13.096;2022-09-09T14:15:06;8.80;;;1.33;;
3563;SDS011;1796;52.388;13.096;2022-09-09T14:17:35;2.07;;;1.10;;
3563;SDS011;1796;52.388;13.096;2022-09-09T14:20:02;7.67;;;1.17;;
3563;SDS011;1796;52.388;13.096;2022-09-09T14:22:33;3.57;;;1.60;;
3563;SDS011;1796;52.388;13.096;2022-09-09T14:25:00;3.73;;;1.13;;
3563;SDS011;1796;52.388;13.096;2022-09-09T14:27:28;2.00;;;1.13;;
3563;SDS011;1796;52.388;13.096;2022-09-09T14:29:56;2.33;;;1.40;;
3563;SDS011;1796;52.388;13.096;2022-09-09T14:32:24;11.20;;;1.20;;
3563;SDS011;1796;52.388;13.096;2022-09-09T14:34:52;3.47;;;1.50;;
3563;SDS011;1796;52.388;13.096;2022-09-09T14:37:18;1.50;;;0.97;;
3563;SDS011;1796;52.388;13.096;2022-09-09T14:39:46;4.33;;;1.50;;
3563;SDS011;1796;52.388;13.096;2022-09-09T14:42:15;2.23;;;1.60;;
3563;SDS011;1796;52.388;13.096;2022-09-09T14:44:42;17.43;;;2.13;;
3563;SDS011;1796;52.388;13.096;2022-09-09T14:47:10;2.83;;;1.53;;
3563;SDS011;1796;52.388;13.096;2022-09-09T14:49:37;7.83;;;1.10;;
3563;SDS011;1796;52.388;13.096;2022-09-09T14:52:04;1.13;;;1.03;;
3563;SDS011;1796;52.388;13.096;2022-09-09T14:54:31;2.30;;;1.30;;
3563;SDS011;1796;52.388;13.096;2022-09-09T14:56:58;4.50;;;1.37;;
3563;SDS011;1796;52.388;13.096;2022-09-09T14:59:25;11.13;;;1.63;;
3563;SDS011;1796;52.388;13.096;2022-09-09T15:01:52;4.17;;;1.50;;
3563;SDS011;1796;52.388;13.096;2022-09-09T15:04:21;6.60;;;1.53;;
3563;SDS011;1796;52.388;13.096;2022-09-09T15:06:47;5.37;;;1.67;;
3563;SDS011;1796;52.388;13.096;2022-09-09T15:09:17;3.97;;;1.60;;
3563;SDS011;1796;52.388;13.096;2022-09-09T15:11:44;3.63;;;1.83;;
3563;SDS011;1796;52.388;13.096;2022-09-09T15:14:11;5.53;;;2.10;;
3563;SDS011;1796;52.388;13.096;2022-09-09T15:16:38;2.70;;;1.57;;
3563;SDS011;1796;52.388;13.096;2022-09-09T15:19:06;6.90;;;1.40;;
3563;SDS011;1796;52.388;13.096;2022-09-09T15:21:36;3.80;;;1.53;;
3563;SDS011;1796;52.388;13.096;2022-09-09T15:24:04;4.10;;;1.57;;
3563;SDS011;1796;52.388;13.096;2022-09-09T15:26:32;2.93;;;1.17;;